Time;durP1;ratioP1;P1;durP2;ratioP2;P2;SDS_P1;SDS_P2;PMS_P1;PMS_P2;Temp;Humidity;BMP_temperature;BMP_pressure;BME280_temperature;BME280_humidity;BME280_pressure;Samples;Min_cycle;Max_cycle;Signal;HPM_P1;HPM_P2
2021/01/12 00:00:04;;;;;;;18.92;14.07;;;3.70;75.20;;;;;;4991839;28;20737;-49
2021/01/12 00:02:32;;;;;;;19.80;13.00;;;3.70;74.80;;;;;;4994578;28;20256;-49
2021/01/12 00:04:58;;;;;;;14.27;12.43;;;3.60;74.40;;;;;;5012476;28;20201;-48
2021/01/12 00:07:25;;;;;;;22.05;15.23;;;3.60;75.30;;;;;;5011539;28;20208;-48
2021/01/12 00:09:52;;;;;;;16.40;13.38;;;3.70;76.20;;;;;;5009865;28;20197;-48
2021/01/12 00:12:19;;;;;;;17.48;11.80;;;3.60;75.40;;;;;;4998960;28;20205;-48
2021/01/12 00:14:46;;;;;;;16.40;11.48;;;3.70;75.70;;;;;;4994038;28;20573;-48
2021/01/12 00:17:13;;;;;;;18.52;12.63;;;3.70;76.20;;;;;;5011525;28;20596;-48
2021/01/12 00:19:41;;;;;;;20.60;13.45;;;3.70;76.80;;;;;;5011567;28;20244;-48
2021/01/12 00:22:14;;;;;;;18.85;14.65;;;3.70;77.30;;;;;;5010692;28;20255;-49
2021/01/12 00:24:41;;;;;;;15.43;11.95;;;3.70;77.40;;;;;;5011043;28;20574;-49
2021/01/12 00:27:08;;;;;;;19.33;12.93;;;3.70;77.60;;;;;;5010716;28;20579;-48
2021/01/12 00:29:35;;;;;;;23.70;16.73;;;3.80;77.80;;;;;;5010831;28;20622;-49
2021/01/12 00:32:01;;;;;;;20.33;12.02;;;3.80;78.20;;;;;;5010740;28;20236;-49
2021/01/12 00:34:28;;;;;;;15.88;11.98;;;3.80;78.80;;;;;;5011831;28;20346;-48
2021/01/12 00:36:56;;;;;;;16.10;11.05;;;3.70;78.50;;;;;;5010994;28;20216;-48
2021/01/12 00:39:23;;;;;;;18.60;14.27;;;3.70;78.70;;;;;;5011247;28;20351;-49
2021/01/12 00:41:52;;;;;;;23.27;15.80;;;3.70;78.90;;;;;;5012020;28;20270;-48
2021/01/12 00:44:18;;;;;;;13.80;11.05;;;3.70;80.10;;;;;;5009820;28;20691;-48
2021/01/12 00:46:45;;;;;;;18.80;13.98;;;3.80;80.10;;;;;;5010098;28;20255;-49
2021/01/12 00:49:12;;;;;;;11.65;8.48;;;3.80;79.60;;;;;;5010586;28;20231;-49
2021/01/12 00:51:40;;;;;;;18.87;12.07;;;3.70;80.10;;;;;;5011330;28;20197;-49
2021/01/12 00:54:07;;;;;;;17.27;13.00;;;3.60;80.00;;;;;;5010578;28;20699;-48
2021/01/12 00:56:34;;;;;;;17.38;10.68;;;3.70;80.40;;;;;;5011031;28;20411;-48
2021/01/12 00:59:01;;;;;;;18.08;13.90;;;3.70;80.00;;;;;;5010609;28;20249;-48
2021/01/12 01:01:29;;;;;;;15.77;10.48;;;3.80;80.80;;;;;;5010004;28;20204;-49
2021/01/12 01:03:55;;;;;;;16.90;13.45;;;3.80;80.30;;;;;;5010430;28;20275;-48
2021/01/12 01:06:22;;;;;;;18.65;13.65;;;3.80;79.80;;;;;;5011266;28;20305;-49
2021/01/12 01:08:49;;;;;;;16.77;12.05;;;3.80;80.30;;;;;;5002649;28;20209;-48
2021/01/12 01:11:17;;;;;;;16.35;12.35;;;3.70;78.50;;;;;;5011852;28;20677;-49
2021/01/12 01:13:43;;;;;;;18.17;15.95;;;3.70;79.00;;;;;;4994474;28;20244;-49
2021/01/12 01:16:10;;;;;;;17.13;12.93;;;3.60;79.00;;;;;;5003266;28;20200;-51
2021/01/12 01:18:37;;;;;;;15.05;10.75;;;3.60;79.70;;;;;;5013190;28;20525;-49
2021/01/12 01:21:04;;;;;;;13.67;8.20;;;3.50;80.00;;;;;;4995300;28;20259;-48
2021/01/12 01:23:31;;;;;;;16.55;12.95;;;3.60;80.30;;;;;;4995881;28;20651;-48
2021/01/12 01:25:58;;;;;;;18.83;13.35;;;3.60;79.90;;;;;;5013960;28;20263;-48
2021/01/12 01:28:25;;;;;;;20.85;15.20;;;3.60;80.90;;;;;;5008946;28;20283;-49
2021/01/12 01:30:53;;;;;;;16.70;11.30;;;3.60;80.50;;;;;;5014538;28;20254;-48
2021/01/12 01:33:20;;;;;;;18.67;12.57;;;3.70;80.60;;;;;;5014546;28;20236;-49
2021/01/12 01:35:47;;;;;;;20.23;13.13;;;3.70;80.70;;;;;;5010405;28;20209;-48
2021/01/12 01:38:14;;;;;;;20.23;13.13;;;3.70;80.80;;;;;;4994871;28;20244;-49
2021/01/12 01:40:40;;;;;;;18.77;14.60;;;3.80;80.60;;;;;;4994711;28;20761;-49
2021/01/12 01:43:07;;;;;;;15.35;12.32;;;3.80;81.10;;;;;;5011598;28;20244;-49
2021/01/12 01:45:35;;;;;;;18.98;13.20;;;3.80;81.20;;;;;;5013654;28;20696;-49
2021/01/12 01:48:02;;;;;;;18.95;13.95;;;3.80;80.80;;;;;;5013314;28;20319;-49
2021/01/12 01:50:29;;;;;;;21.95;15.38;;;3.70;80.90;;;;;;5014314;28;20200;-49
2021/01/12 01:52:56;;;;;;;23.95;16.50;;;3.70;81.80;;;;;;5014166;28;20228;-49
2021/01/12 01:55:24;;;;;;;16.70;12.43;;;3.80;82.00;;;;;;5013963;28;20211;-48
2021/01/12 01:57:50;;;;;;;21.73;13.48;;;3.80;82.80;;;;;;5012851;28;20220;-47
2021/01/12 02:00:19;;;;;;;17.50;13.37;;;3.80;81.50;;;;;;5013054;28;20260;-48
2021/01/12 02:02:50;;;;;;;8.95;8.02;;;3.80;81.30;;;;;;5013939;28;20691;-48
2021/01/12 02:05:17;;;;;;;17.13;13.90;;;3.80;81.90;;;;;;5012970;28;20213;-49
2021/01/12 02:07:44;;;;;;;24.48;19.23;;;3.80;81.70;;;;;;5013908;28;20203;-48
2021/01/12 02:10:12;;;;;;;17.55;13.88;;;3.80;82.70;;;;;;5013167;28;20217;-48
2021/01/12 02:12:44;;;;;;;13.85;11.35;;;3.80;82.90;;;;;;5013150;28;20233;-48
2021/01/12 02:15:11;;;;;;;21.43;15.60;;;3.80;82.80;;;;;;5012088;28;20619;-48
2021/01/12 02:17:37;;;;;;;22.73;15.50;;;3.80;83.50;;;;;;5012066;28;20659;-48
2021/01/12 02:20:06;;;;;;;16.40;14.15;;;3.80;84.10;;;;;;5011692;28;20268;-47
2021/01/12 02:22:33;;;;;;;22.95;16.98;;;3.80;83.60;;;;;;5011058;28;20282;-48
2021/01/12 02:25:00;;;;;;;16.80;13.57;;;3.80;83.70;;;;;;5011358;28;20240;-48
2021/01/12 02:27:27;;;;;;;17.90;12.40;;;3.70;84.10;;;;;;5012019;28;20620;-48
2021/01/12 02:29:54;;;;;;;16.90;12.98;;;3.70;84.30;;;;;;5011777;28;20678;-48
2021/01/12 02:32:21;;;;;;;16.05;13.02;;;3.60;85.80;;;;;;5011756;28;20289;-48
2021/01/12 02:34:48;;;;;;;22.80;15.65;;;3.60;85.30;;;;;;5011601;28;20235;-48
2021/01/12 02:37:16;;;;;;;14.35;12.82;;;3.60;85.70;;;;;;5011705;28;20227;-49
2021/01/12 02:39:42;;;;;;;24.17;17.23;;;3.60;87.20;;;;;;5011696;28;21406;-48
2021/01/12 02:42:16;;;;;;;19.85;15.63;;;3.70;86.80;;;;;;5011219;28;20713;-48
2021/01/12 02:44:43;;;;;;;21.80;12.77;;;3.60;86.40;;;;;;5011435;28;20232;-48
2021/01/12 02:47:10;;;;;;;15.07;12.63;;;3.60;86.80;;;;;;4992017;28;20217;-48
2021/01/12 02:49:37;;;;;;;20.92;18.30;;;3.60;86.50;;;;;;5003520;28;20217;-48
2021/01/12 02:52:05;;;;;;;24.20;14.40;;;3.60;86.90;;;;;;5011266;28;20227;-48
2021/01/12 02:54:32;;;;;;;20.17;13.13;;;3.70;87.40;;;;;;5010853;28;20572;-48
2021/01/12 02:56:59;;;;;;;16.50;11.50;;;3.70;87.60;;;;;;5011254;28;20215;-48
2021/01/12 02:59:27;;;;;;;22.40;18.40;;;3.70;87.10;;;;;;5011337;28;20251;-48
2021/01/12 03:01:53;;;;;;;18.00;12.60;;;3.70;87.60;;;;;;5010687;28;20232;-48
2021/01/12 03:04:20;;;;;;;21.35;15.68;;;3.70;89.20;;;;;;5010500;28;20263;-48
2021/01/12 03:06:47;;;;;;;21.50;16.10;;;3.70;87.40;;;;;;5011118;28;20273;-48
2021/01/12 03:09:13;;;;;;;17.90;13.48;;;3.70;87.20;;;;;;5011506;28;20229;-48
2021/01/12 03:11:40;;;;;;;15.77;11.05;;;3.70;87.40;;;;;;5005079;28;20701;-48
2021/01/12 03:14:07;;;;;;;17.42;13.50;;;3.70;87.90;;;;;;5009957;28;20255;-48
2021/01/12 03:16:34;;;;;;;20.13;15.32;;;3.60;88.30;;;;;;5010680;28;20238;-47
2021/01/12 03:19:02;;;;;;;20.92;12.20;;;3.60;89.50;;;;;;5010177;28;20239;-48
2021/01/12 03:21:28;;;;;;;16.98;14.00;;;3.60;90.70;;;;;;5010704;28;20252;-48
2021/01/12 03:23:55;;;;;;;18.35;15.38;;;3.50;91.70;;;;;;5010700;28;20236;-48
2021/01/12 03:26:22;;;;;;;13.75;11.23;;;3.50;92.40;;;;;;5010799;28;20232;-48
2021/01/12 03:28:49;;;;;;;20.45;16.20;;;3.30;93.30;;;;;;5004714;28;20238;-47
2021/01/12 03:31:15;;;;;;;18.75;13.27;;;3.20;93.90;;;;;;5010869;28;20208;-48
2021/01/12 03:33:43;;;;;;;19.02;13.75;;;3.20;94.40;;;;;;5009331;28;20263;-48
2021/01/12 03:36:10;;;;;;;16.20;11.43;;;3.20;94.80;;;;;;5010330;28;20274;-52
2021/01/12 03:38:36;;;;;;;21.02;16.67;;;3.10;94.60;;;;;;5010569;28;20532;-48
2021/01/12 03:41:03;;;;;;;15.57;13.15;;;3.10;94.50;;;;;;5010200;28;20257;-48
2021/01/12 03:43:30;;;;;;;22.25;13.43;;;3.10;94.70;;;;;;5004385;28;20236;-48
2021/01/12 03:45:57;;;;;;;13.63;11.85;;;3.20;94.80;;;;;;5010561;28;20240;-48
2021/01/12 03:48:23;;;;;;;21.25;14.93;;;3.20;94.90;;;;;;5010551;28;20228;-48
2021/01/12 03:50:51;;;;;;;15.80;11.25;;;3.30;94.60;;;;;;5010923;28;20207;-48
2021/01/12 03:53:18;;;;;;;14.43;12.48;;;3.30;94.30;;;;;;5010491;28;20306;-48
2021/01/12 03:55:44;;;;;;;17.73;13.02;;;3.30;94.20;;;;;;5010031;28;20284;-48
2021/01/12 03:58:11;;;;;;;23.33;16.77;;;3.20;94.60;;;;;;5009832;28;20551;-48
2021/01/12 04:00:38;;;;;;;17.50;13.45;;;3.20;95.10;;;;;;5009563;28;20256;-48
2021/01/12 04:03:05;;;;;;;19.02;13.65;;;3.20;95.50;;;;;;5009458;28;20294;-48
2021/01/12 04:05:32;;;;;;;11.60;10.18;;;3.20;95.90;;;;;;5009457;28;20228;-47
2021/01/12 04:08:00;;;;;;;20.77;14.75;;;3.20;95.90;;;;;;5009576;28;20610;-47
2021/01/12 04:10:27;;;;;;;20.20;12.60;;;3.10;96.00;;;;;;5009950;28;20197;-47
2021/01/12 04:12:54;;;;;;;19.60;15.10;;;3.10;96.20;;;;;;5009770;28;20262;-47
2021/01/12 04:15:21;;;;;;;21.40;16.42;;;3.00;96.40;;;;;;5009314;28;20232;-47
2021/01/12 04:17:47;;;;;;;22.85;15.60;;;3.00;97.00;;;;;;5010052;28;20235;-48
2021/01/12 04:20:15;;;;;;;23.15;13.52;;;2.90;97.10;;;;;;5009870;28;20268;-47
2021/01/12 04:25:12;;;;;;;21.52;13.48;;;2.90;97.60;;;;;;5049970;28;20237;-57
2021/01/12 04:27:39;;;;;;;25.73;17.00;;;2.80;97.60;;;;;;5050758;28;20710;-57
2021/01/12 04:30:06;;;;;;;16.23;11.52;;;2.80;97.80;;;;;;5051274;28;20256;-56
2021/01/12 04:32:33;;;;;;;20.90;14.20;;;2.80;98.10;;;;;;5050978;28;20207;-56
2021/01/12 04:35:00;;;;;;;25.35;17.75;;;2.90;98.20;;;;;;5030831;28;20235;-56
2021/01/12 04:37:26;;;;;;;25.45;16.05;;;2.90;97.90;;;;;;5030825;28;20243;-57
2021/01/12 04:39:53;;;;;;;13.57;11.50;;;2.90;97.80;;;;;;5030976;28;20240;-56
2021/01/12 04:42:21;;;;;;;15.05;10.63;;;2.90;97.90;;;;;;5030575;28;20677;-56
2021/01/12 04:44:47;;;;;;;22.33;17.42;;;2.90;97.90;;;;;;5031111;28;20216;-58
2021/01/12 04:47:14;;;;;;;16.25;12.18;;;2.90;98.00;;;;;;5019149;28;20235;-57
2021/01/12 04:49:41;;;;;;;19.67;12.80;;;2.80;97.80;;;;;;5030276;28;20238;-56
2021/01/12 04:52:08;;;;;;;22.25;13.90;;;2.80;97.70;;;;;;5031353;28;20315;-57
2021/01/12 04:54:35;;;;;;;22.55;16.58;;;2.80;97.90;;;;;;5030689;28;20595;-57
2021/01/12 04:57:02;;;;;;;18.73;12.85;;;2.80;98.10;;;;;;5030827;28;20246;-58
2021/01/12 04:59:30;;;;;;;30.70;15.13;;;2.80;98.30;;;;;;5030541;28;20238;-58
2021/01/12 05:01:57;;;;;;;15.95;11.95;;;2.70;98.30;;;;;;5029045;28;20256;-58
2021/01/12 05:04:24;;;;;;;22.13;15.25;;;2.70;98.40;;;;;;5030537;28;20248;-57
2021/01/12 05:06:53;;;;;;;26.08;17.52;;;2.70;98.50;;;;;;5027258;28;20248;-57
2021/01/12 05:09:21;;;;;;;19.13;15.95;;;2.70;98.70;;;;;;5011095;28;20236;-58
2021/01/12 05:11:47;;;;;;;22.00;12.73;;;2.70;98.60;;;;;;5018469;28;20203;-58
2021/01/12 05:14:15;;;;;;;25.40;18.70;;;2.70;98.60;;;;;;5030626;28;20253;-57
2021/01/12 05:16:50;;;;;;;25.48;19.80;;;2.60;98.70;;;;;;5030872;28;20252;-57
2021/01/12 05:19:21;;;;;;;20.33;13.30;;;2.60;98.90;;;;;;5030602;28;20226;-57
2021/01/12 05:21:48;;;;;;;18.60;14.90;;;2.60;99.00;;;;;;5031051;28;20215;-58
2021/01/12 05:24:19;;;;;;;22.60;16.60;;;2.60;99.10;;;;;;5030221;28;20258;-57
2021/01/12 05:26:45;;;;;;;15.75;12.07;;;2.60;99.20;;;;;;5030752;28;20240;-57
2021/01/12 05:29:12;;;;;;;22.95;17.35;;;2.60;99.40;;;;;;5030476;28;20245;-58
2021/01/12 05:31:39;;;;;;;12.80;10.45;;;2.60;99.50;;;;;;5030590;28;20253;-57
2021/01/12 05:34:07;;;;;;;22.67;16.48;;;2.70;99.60;;;;;;5030334;28;20227;-58
2021/01/12 05:36:45;;;;;;;26.02;15.85;;;2.70;99.50;;;;;;5012632;28;20207;-57
2021/01/12 05:39:13;;;;;;;28.25;21.65;;;2.60;99.40;;;;;;5030650;28;20251;-58
2021/01/12 05:41:40;;;;;;;30.75;24.80;;;2.70;99.50;;;;;;5030623;28;20258;-59
2021/01/12 05:44:12;;;;;;;19.42;15.73;;;2.70;99.60;;;;;;5024942;28;20295;-58
2021/01/12 05:46:39;;;;;;;19.58;15.30;;;2.60;99.60;;;;;;5030159;28;20242;-57
2021/01/12 05:49:07;;;;;;;25.40;16.85;;;2.60;99.60;;;;;;5012141;28;20211;-57
2021/01/12 05:51:33;;;;;;;25.33;19.02;;;2.60;99.90;;;;;;5030433;28;20230;-57
2021/01/12 05:54:04;;;;;;;18.75;13.23;;;2.50;99.90;;;;;;5029030;28;20582;-58
2021/01/12 05:56:31;;;;;;;25.38;16.52;;;2.60;99.90;;;;;;5010955;28;20230;-58
2021/01/12 05:58:59;;;;;;;25.27;17.25;;;2.60;99.90;;;;;;5022673;28;20258;-58
2021/01/12 06:01:35;;;;;;;22.38;14.07;;;2.50;99.90;;;;;;5033629;28;20247;-57
2021/01/12 06:04:02;;;;;;;17.20;11.30;;;2.60;99.90;;;;;;5033752;28;20253;-59
2021/01/12 06:06:30;;;;;;;19.23;14.35;;;2.60;99.90;;;;;;5016517;28;20210;-57
2021/01/12 06:08:57;;;;;;;23.38;16.58;;;2.50;99.90;;;;;;5033765;28;20246;-58
2021/01/12 06:11:24;;;;;;;28.38;21.50;;;2.50;99.90;;;;;;5033630;28;20807;-59
2021/01/12 06:13:53;;;;;;;28.92;20.90;;;2.60;99.90;;;;;;5033549;28;20248;-58
2021/01/12 06:16:23;;;;;;;16.40;12.10;;;2.60;99.90;;;;;;5033416;28;20238;-58
2021/01/12 06:19:00;;;;;;;24.52;16.75;;;2.50;99.90;;;;;;5033485;28;20597;-58
2021/01/12 06:21:27;;;;;;;30.67;19.75;;;2.60;99.90;;;;;;5033327;28;20243;-58
2021/01/12 06:23:56;;;;;;;16.95;13.57;;;2.60;99.90;;;;;;5033300;28;20746;-58
2021/01/12 06:26:23;;;;;;;24.50;17.55;;;2.60;99.90;;;;;;5033632;28;20215;-59
2021/01/12 06:28:51;;;;;;;17.85;14.52;;;2.60;99.90;;;;;;5033165;28;20692;-57
2021/01/12 06:31:18;;;;;;;16.75;10.68;;;2.60;99.90;;;;;;5033145;28;20233;-58
2021/01/12 06:33:44;;;;;;;24.83;18.23;;;2.60;99.90;;;;;;5032965;28;20246;-57
2021/01/12 06:36:11;;;;;;;32.28;22.80;;;2.60;99.90;;;;;;5031510;28;20574;-58
2021/01/12 06:38:38;;;;;;;23.23;16.98;;;2.60;99.90;;;;;;5032840;28;20635;-57
2021/01/12 06:41:07;;;;;;;24.10;16.55;;;2.60;99.90;;;;;;5032684;28;20289;-57
2021/01/12 06:43:34;;;;;;;30.95;21.95;;;2.60;99.90;;;;;;5033139;28;20259;-57
2021/01/12 06:46:02;;;;;;;24.60;20.98;;;2.70;99.90;;;;;;5032959;28;20238;-56
2021/01/12 06:48:31;;;;;;;28.27;22.75;;;2.70;99.90;;;;;;5015448;28;20231;-57
2021/01/12 06:51:00;;;;;;;30.30;20.83;;;2.70;99.90;;;;;;5032825;28;20243;-56
2021/01/12 06:53:27;;;;;;;25.73;18.75;;;2.70;99.90;;;;;;5032712;28;20266;-57
2021/01/12 06:56:04;;;;;;;21.15;13.50;;;2.80;99.90;;;;;;5033005;28;20249;-57
2021/01/12 06:58:32;;;;;;;25.55;19.85;;;2.80;99.90;;;;;;5032951;28;20626;-57
2021/01/12 07:00:59;;;;;;;27.65;16.77;;;2.80;99.90;;;;;;5032763;28;20230;-57
2021/01/12 07:03:29;;;;;;;28.08;20.30;;;2.80;99.90;;;;;;5014416;28;20274;-55
2021/01/12 07:05:59;;;;;;;16.38;12.40;;;2.70;99.90;;;;;;5032555;28;20246;-56
2021/01/12 07:08:26;;;;;;;19.77;15.35;;;2.70;99.90;;;;;;5032496;28;20242;-57
2021/01/12 07:10:52;;;;;;;29.95;21.42;;;2.70;99.90;;;;;;5032794;28;20585;-56
2021/01/12 07:13:19;;;;;;;17.63;13.05;;;2.70;99.90;;;;;;5032015;28;20339;-57
2021/01/12 07:15:48;;;;;;;26.48;18.77;;;2.70;99.90;;;;;;5032384;28;20280;-58
2021/01/12 07:18:15;;;;;;;17.05;12.80;;;2.70;99.90;;;;;;5032207;28;20227;-57
2021/01/12 07:20:42;;;;;;;17.02;11.98;;;2.80;99.90;;;;;;5031467;28;20683;-58
2021/01/12 07:23:10;;;;;;;23.92;17.90;;;2.80;99.90;;;;;;5031995;28;20653;-57
2021/01/12 07:25:37;;;;;;;24.10;16.17;;;2.80;99.90;;;;;;5032103;28;20625;-58
2021/01/12 07:28:05;;;;;;;19.17;11.10;;;2.80;99.90;;;;;;5031896;28;20203;-58
2021/01/12 07:30:33;;;;;;;24.50;17.48;;;2.80;99.90;;;;;;5032579;28;20251;-58
2021/01/12 07:33:01;;;;;;;23.77;15.40;;;2.90;99.90;;;;;;5014162;28;20765;-58
2021/01/12 07:35:28;;;;;;;22.73;17.30;;;2.90;99.90;;;;;;5032058;28;20212;-58
2021/01/12 07:37:55;;;;;;;19.70;16.10;;;2.90;99.90;;;;;;5031689;28;20242;-58
2021/01/12 07:40:22;;;;;;;21.73;16.50;;;3.10;99.90;;;;;;5031034;28;20258;-58
2021/01/12 07:42:50;;;;;;;20.55;14.85;;;3.20;99.90;;;;;;5031337;28;20492;-57
2021/01/12 07:45:17;;;;;;;20.38;15.65;;;3.20;99.90;;;;;;5024511;28;20236;-56
2021/01/12 07:47:44;;;;;;;16.52;11.98;;;3.20;99.90;;;;;;5031834;28;20220;-53
2021/01/12 07:50:13;;;;;;;18.27;14.97;;;3.50;99.90;;;;;;5031771;28;20215;-60
2021/01/12 07:52:40;;;;;;;16.05;12.95;;;3.50;99.90;;;;;;5031884;28;20654;-58
2021/01/12 07:55:08;;;;;;;15.93;10.45;;;3.50;99.90;;;;;;5031984;28;20240;-59
2021/01/12 07:57:35;;;;;;;17.60;14.17;;;3.40;99.90;;;;;;5031634;28;20247;-58
2021/01/12 08:00:03;;;;;;;18.27;15.48;;;3.30;99.90;;;;;;5031799;28;20643;-59
2021/01/12 08:02:30;;;;;;;19.38;16.60;;;3.20;99.90;;;;;;5032383;28;20293;-58
2021/01/12 08:04:57;;;;;;;12.98;10.55;;;3.20;99.90;;;;;;5032139;28;20240;-59
2021/01/12 08:07:25;;;;;;;19.52;14.57;;;3.30;99.90;;;;;;5032250;28;20204;-57
2021/01/12 08:09:55;;;;;;;14.05;10.55;;;3.30;99.90;;;;;;5033856;28;20198;-58
2021/01/12 08:12:22;;;;;;;18.23;13.02;;;3.30;99.90;;;;;;5032883;28;20211;-58
2021/01/12 08:14:49;;;;;;;13.00;10.20;;;3.40;99.90;;;;;;5032842;28;20235;-56
2021/01/12 08:17:20;;;;;;;14.07;11.75;;;3.30;99.90;;;;;;5033390;28;20219;-59
2021/01/12 08:19:47;;;;;;;11.20;9.60;;;3.30;99.90;;;;;;5031420;28;20220;-58
2021/01/12 08:22:17;;;;;;;13.25;10.30;;;3.30;99.90;;;;;;5032601;28;20254;-58
2021/01/12 08:24:45;;;;;;;17.52;13.60;;;3.20;99.90;;;;;;5031950;28;20251;-58
2021/01/12 08:27:13;;;;;;;15.48;12.88;;;3.20;99.90;;;;;;5031846;28;20204;-58
2021/01/12 08:29:40;;;;;;;19.67;13.52;;;3.10;99.90;;;;;;5028929;28;20250;-58
2021/01/12 08:32:07;;;;;;;17.30;12.82;;;3.20;99.90;;;;;;5030716;28;20211;-59
2021/01/12 08:34:45;;;;;;;13.02;10.05;;;3.20;99.90;;;;;;5031150;28;20750;-59
2021/01/12 08:37:12;;;;;;;15.32;12.13;;;3.20;99.90;;;;;;5030856;28;20734;-59
2021/01/12 08:39:38;;;;;;;23.35;15.70;;;3.20;99.90;;;;;;5031176;28;20247;-57
2021/01/12 08:42:07;;;;;;;15.65;13.95;;;3.20;99.90;;;;;;5012866;28;20243;-60
2021/01/12 08:44:36;;;;;;;13.88;12.40;;;3.20;99.90;;;;;;5030779;28;20232;-59
2021/01/12 08:47:06;;;;;;;16.85;13.63;;;3.30;99.90;;;;;;5030461;28;20232;-61
2021/01/12 08:49:33;;;;;;;16.95;12.55;;;3.30;99.90;;;;;;5030011;28;20574;-61
2021/01/12 08:52:01;;;;;;;14.27;12.60;;;3.30;99.90;;;;;;5030982;28;20257;-60
2021/01/12 08:54:28;;;;;;;9.88;8.18;;;3.30;99.90;;;;;;5029829;28;20293;-60
2021/01/12 08:56:56;;;;;;;15.20;13.38;;;3.30;99.90;;;;;;5015051;28;20665;-60
2021/01/12 08:59:31;;;;;;;13.98;12.60;;;3.30;99.90;;;;;;5011331;28;20282;-59
2021/01/12 09:01:58;;;;;;;13.27;10.45;;;3.20;99.90;;;;;;5024898;28;20222;-59
2021/01/12 09:04:27;;;;;;;11.65;10.55;;;3.20;99.90;;;;;;5030400;28;20265;-57
2021/01/12 09:07:05;;;;;;;11.10;6.85;;;3.20;99.90;;;;;;5030408;28;20239;-59
2021/01/12 09:09:32;;;;;;;12.85;9.75;;;3.20;99.90;;;;;;5013438;28;20207;-59
2021/01/12 09:12:00;;;;;;;11.90;9.63;;;3.10;99.90;;;;;;5030496;28;20597;-60
2021/01/12 09:14:28;;;;;;;15.00;11.70;;;3.10;99.90;;;;;;5030571;28;20266;-59
2021/01/12 09:16:58;;;;;;;14.27;11.73;;;3.20;99.90;;;;;;5030441;28;20212;-60
2021/01/12 09:19:25;;;;;;;10.13;7.97;;;3.30;99.90;;;;;;5030216;28;20231;-60
2021/01/12 09:21:52;;;;;;;9.52;8.50;;;3.20;99.90;;;;;;5029974;28;20318;-59
2021/01/12 09:24:20;;;;;;;14.48;10.05;;;3.20;99.90;;;;;;5030198;28;20263;-61
2021/01/12 09:26:47;;;;;;;9.13;7.55;;;3.30;99.90;;;;;;5030067;28;20240;-60
2021/01/12 09:29:13;;;;;;;10.68;7.72;;;3.30;99.90;;;;;;5012649;28;20250;-61
2021/01/12 09:31:45;;;;;;;14.55;10.30;;;3.40;99.90;;;;;;5030315;28;20223;-60
2021/01/12 09:34:13;;;;;;;11.93;7.72;;;3.50;99.90;;;;;;5016285;28;20503;-60
2021/01/12 09:36:40;;;;;;;8.60;6.40;;;3.50;99.90;;;;;;5033616;28;20232;-61
2021/01/12 09:39:11;;;;;;;9.60;6.32;;;3.50;99.90;;;;;;5033820;28;20239;-59
2021/01/12 09:41:38;;;;;;;11.30;9.52;;;3.50;99.90;;;;;;5034008;28;20255;-61
2021/01/12 09:44:06;;;;;;;11.85;9.93;;;3.50;99.90;;;;;;5033268;28;20242;-60
2021/01/12 09:46:32;;;;;;;12.67;8.03;;;3.50;99.90;;;;;;5028438;28;20208;-60
2021/01/12 09:49:00;;;;;;;9.80;7.90;;;3.50;99.90;;;;;;5032077;28;20688;-60
2021/01/12 09:51:27;;;;;;;11.10;9.10;;;3.60;99.90;;;;;;5033412;28;20646;-60
2021/01/12 09:53:54;;;;;;;6.40;5.63;;;3.60;99.90;;;;;;5033671;28;20255;-59
2021/01/12 09:56:21;;;;;;;6.95;6.30;;;3.60;99.90;;;;;;5033514;28;20228;-59
2021/01/12 09:58:49;;;;;;;11.70;10.30;;;3.60;99.90;;;;;;5033338;28;20235;-58
2021/01/12 10:01:16;;;;;;;10.02;8.40;;;3.70;99.90;;;;;;5033010;28;20326;-59
2021/01/12 10:03:43;;;;;;;8.38;6.70;;;3.60;99.90;;;;;;5033399;28;20250;-58
2021/01/12 10:06:17;;;;;;;8.82;7.60;;;3.60;99.90;;;;;;5033097;28;20255;-59
2021/01/12 10:08:45;;;;;;;8.47;7.30;;;3.60;99.90;;;;;;5033229;28;20243;-58
2021/01/12 10:11:12;;;;;;;8.70;7.73;;;3.60;99.90;;;;;;5032746;28;20650;-58
2021/01/12 10:13:39;;;;;;;5.88;5.30;;;3.60;99.90;;;;;;5032980;28;20670;-58
2021/01/12 10:16:06;;;;;;;7.72;5.07;;;3.60;99.90;;;;;;5033304;28;20254;-57
2021/01/12 10:18:33;;;;;;;7.20;6.50;;;3.60;99.90;;;;;;5032771;28;20288;-57
2021/01/12 10:21:00;;;;;;;6.03;5.43;;;3.60;99.90;;;;;;5033233;28;20224;-58
2021/01/12 10:23:28;;;;;;;7.33;5.63;;;3.70;99.90;;;;;;5051116;22;20661;-49
2021/01/12 10:25:55;;;;;;;9.33;6.53;;;3.70;99.90;;;;;;5077308;28;20632;-48
2021/01/12 10:28:21;;;;;;;6.43;5.30;;;3.70;99.90;;;;;;5107768;28;21040;-50
2021/01/12 10:30:49;;;;;;;6.13;5.63;;;3.80;99.90;;;;;;5087303;28;20660;-49
2021/01/12 10:33:15;;;;;;;4.87;4.40;;;3.80;99.90;;;;;;5071860;28;20617;-50
2021/01/12 10:35:42;;;;;;;6.00;5.20;;;3.80;99.90;;;;;;5071838;28;20658;-50
2021/01/12 10:38:09;;;;;;;8.87;6.53;;;3.80;99.90;;;;;;5059113;28;20660;-52
2021/01/12 10:40:37;;;;;;;5.37;4.70;;;3.80;99.90;;;;;;5054654;28;20682;-50
2021/01/12 10:43:04;;;;;;;4.97;4.57;;;3.80;99.90;;;;;;5070861;28;21282;-51
2021/01/12 10:45:31;;;;;;;5.13;4.03;;;3.70;99.90;;;;;;5071101;28;20652;-51
2021/01/12 10:47:58;;;;;;;6.30;5.20;;;3.80;99.90;;;;;;5071626;28;20746;-51
2021/01/12 10:50:25;;;;;;;6.83;6.13;;;3.80;99.90;;;;;;5057369;28;20658;-50
2021/01/12 10:52:52;;;;;;;6.30;4.60;;;3.90;99.90;;;;;;5071240;28;21196;-50
2021/01/12 10:55:21;;;;;;;5.00;4.50;;;3.90;99.90;;;;;;5070393;28;20653;-50
2021/01/12 10:57:49;;;;;;;5.10;3.47;;;3.90;99.90;;;;;;5070930;28;20621;-50
2021/01/12 11:00:16;;;;;;;6.73;5.27;;;3.90;99.90;;;;;;5070896;28;20649;-51
2021/01/12 11:02:43;;;;;;;5.60;4.13;;;3.90;99.90;;;;;;5071157;28;20695;-52
2021/01/12 11:05:10;;;;;;;3.60;3.30;;;4.00;99.90;;;;;;5071145;28;20722;-51
2021/01/12 11:07:40;;;;;;;2.40;2.20;;;4.00;99.90;;;;;;5070860;28;20660;-52
2021/01/12 11:10:08;;;;;;;4.30;3.90;;;4.00;99.80;;;;;;5070986;28;21156;-49
2021/01/12 11:12:36;;;;;;;7.10;4.70;;;4.00;99.80;;;;;;5071480;28;21039;-50
2021/01/12 11:15:04;;;;;;;4.63;3.70;;;4.10;99.90;;;;;;5070602;28;20688;-51
2021/01/12 11:17:31;;;;;;;4.40;4.00;;;4.20;99.90;;;;;;5070754;28;20657;-51
2021/01/12 11:19:58;;;;;;;4.40;3.40;;;4.20;99.50;;;;;;5055684;28;21133;-51
2021/01/12 11:22:27;;;;;;;3.75;3.35;;;4.20;99.60;;;;;;5068773;28;20681;-50
2021/01/12 11:24:55;;;;;;;3.58;3.28;;;4.20;99.50;;;;;;5070404;28;20738;-53
2021/01/12 11:27:22;;;;;;;8.70;5.53;;;4.20;99.60;;;;;;5070290;28;20682;-50
2021/01/12 11:29:50;;;;;;;3.80;3.43;;;4.10;99.60;;;;;;5070643;28;20671;-52
2021/01/12 11:32:18;;;;;;;3.40;2.20;;;4.20;99.70;;;;;;5070597;28;20648;-50
2021/01/12 11:34:45;;;;;;;5.43;4.93;;;4.20;99.70;;;;;;5069503;28;21050;-50
2021/01/12 11:37:12;;;;;;;3.93;3.50;;;4.10;99.70;;;;;;5065302;28;20756;-51
2021/01/12 11:39:39;;;;;;;4.90;3.87;;;4.20;99.70;;;;;;5048458;28;21188;-51
2021/01/12 11:42:09;;;;;;;2.95;2.65;;;4.20;99.70;;;;;;5066159;28;20681;-50
2021/01/12 11:44:36;;;;;;;3.27;2.77;;;4.10;99.80;;;;;;5069405;28;20248;-50
2021/01/12 11:47:03;;;;;;;4.07;3.40;;;4.10;99.90;;;;;;5043211;28;20627;-50
2021/01/12 11:49:30;;;;;;;4.67;3.47;;;4.00;99.90;;;;;;5030610;28;20663;-50
2021/01/12 11:51:57;;;;;;;5.40;4.07;;;4.00;99.90;;;;;;5058763;28;20655;-51
2021/01/12 11:54:24;;;;;;;4.18;2.70;;;4.00;99.90;;;;;;5069229;28;20680;-52
2021/01/12 11:56:55;;;;;;;4.30;3.57;;;4.00;99.90;;;;;;5069609;28;20238;-52
2021/01/12 11:59:24;;;;;;;4.65;4.25;;;4.00;99.90;;;;;;5069156;28;20654;-51
2021/01/12 12:01:51;;;;;;;4.85;3.75;;;4.10;99.90;;;;;;5069580;28;20291;-51
2021/01/12 12:04:18;;;;;;;4.13;3.37;;;4.10;99.90;;;;;;5069921;28;20262;-51
2021/01/12 12:06:47;;;;;;;3.17;2.83;;;4.10;99.90;;;;;;5069539;28;20653;-51
2021/01/12 12:09:14;;;;;;;3.10;2.10;;;4.20;99.90;;;;;;5065198;28;20665;-50
2021/01/12 12:11:41;;;;;;;4.47;3.23;;;4.20;99.90;;;;;;5062511;28;20649;-51
2021/01/12 12:14:09;;;;;;;3.63;3.27;;;4.20;99.90;;;;;;5069177;28;20676;-51
2021/01/12 12:16:36;;;;;;;2.60;2.40;;;4.20;99.90;;;;;;5069560;28;21046;-52
2021/01/12 12:19:03;;;;;;;1.93;1.77;;;4.20;99.90;;;;;;5069238;28;20632;-49
2021/01/12 12:21:30;;;;;;;3.87;3.57;;;4.20;99.90;;;;;;5069850;28;20657;-50
2021/01/12 12:23:58;;;;;;;3.23;2.93;;;4.20;99.90;;;;;;5068984;28;20747;-50
2021/01/12 12:26:25;;;;;;;3.47;2.70;;;4.20;99.90;;;;;;5069932;28;20668;-50
2021/01/12 12:28:52;;;;;;;4.13;3.10;;;4.20;99.90;;;;;;5069054;28;20625;-50
2021/01/12 12:31:18;;;;;;;3.00;2.80;;;4.20;99.90;;;;;;5069188;28;20738;-51
2021/01/12 12:33:46;;;;;;;2.97;2.70;;;4.30;99.90;;;;;;5069676;28;20649;-52
2021/01/12 12:36:13;;;;;;;2.50;2.08;;;4.30;99.90;;;;;;5069355;28;20686;-49
2021/01/12 12:38:41;;;;;;;2.93;2.57;;;4.30;99.80;;;;;;5052713;28;20683;-50
2021/01/12 12:41:09;;;;;;;2.70;2.33;;;4.30;99.70;;;;;;5057152;28;21226;-50
2021/01/12 12:43:36;;;;;;;2.63;2.10;;;4.30;99.70;;;;;;5069507;28;20697;-49
2021/01/12 12:46:04;;;;;;;2.90;2.60;;;4.30;99.70;;;;;;5069879;28;20653;-49